Time;durP1;ratioP1;P1;durP2;ratioP2;P2;SDS_P1;SDS_P2;PMS_P1;PMS_P2;Temp;Humidity;BMP_temperature;BMP_pressure;BME280_temperature;BME280_humidity;BME280_pressure;Samples;Min_cycle;Max_cycle;Signal;HPM_P1;HPM_P2
2022/08/21 00:00:50;;;;;;;18.47;17.57;;;24.70;64.00;;;;;;5113036;28;20380;-70
2022/08/21 00:03:16;;;;;;;17.70;16.80;;;24.70;64.00;;;;;;5113036;28;20392;-72
2022/08/21 00:05:49;;;;;;;17.52;16.73;;;24.70;64.00;;;;;;5113028;28;20499;-69
2022/08/21 00:08:16;;;;;;;17.23;16.42;;;24.70;63.90;;;;;;5112798;28;20416;-69
2022/08/21 00:10:43;;;;;;;17.73;16.83;;;24.70;63.90;;;;;;5112744;28;20396;-69
2022/08/21 00:13:10;;;;;;;18.38;17.48;;;24.60;63.80;;;;;;5112891;27;20399;-79
2022/08/21 00:15:38;;;;;;;20.67;19.67;;;24.70;63.90;;;;;;5112910;28;20861;-69
2022/08/21 00:18:06;;;;;;;18.25;17.25;;;24.60;63.80;;;;;;5112462;28;20379;-71
2022/08/21 00:20:33;;;;;;;20.53;19.53;;;24.60;63.80;;;;;;5112902;28;20464;-71
2022/08/21 00:22:58;;;;;;;19.30;18.40;;;24.60;63.80;;;;;;5112717;28;20372;-69
2022/08/21 00:25:25;;;;;;;20.00;19.00;;;24.60;63.80;;;;;;5112140;28;20388;-69
2022/08/21 00:27:51;;;;;;;19.10;18.20;;;24.60;63.80;;;;;;5111105;28;20396;-69
2022/08/21 00:30:18;;;;;;;19.67;18.77;;;24.60;63.80;;;;;;5112525;28;20396;-78
2022/08/21 00:32:45;;;;;;;19.42;18.52;;;24.60;63.80;;;;;;5111370;28;20396;-69
2022/08/21 00:35:13;;;;;;;17.85;16.95;;;24.60;63.80;;;;;;5112584;28;20431;-69
2022/08/21 00:37:40;;;;;;;19.05;18.15;;;24.60;63.70;;;;;;5111260;28;20420;-74
2022/08/21 00:40:08;;;;;;;19.55;18.65;;;24.50;63.70;;;;;;5112412;28;20391;-69
2022/08/21 00:42:34;;;;;;;18.27;17.38;;;24.60;63.70;;;;;;5111217;28;20396;-69
2022/08/21 00:45:00;;;;;;;18.20;17.30;;;24.60;63.60;;;;;;5112559;28;20376;-78
2022/08/21 00:47:26;;;;;;;17.25;16.45;;;24.50;63.60;;;;;;5111166;28;20408;-69
2022/08/21 00:49:52;;;;;;;16.67;15.88;;;24.60;63.70;;;;;;5145677;27;20544;-78
2022/08/21 00:52:21;;;;;;;18.83;17.83;;;24.50;63.60;;;;;;5112339;28;20376;-78
2022/08/21 00:54:48;;;;;;;20.52;19.52;;;24.50;63.60;;;;;;5112497;28;20388;-78
2022/08/21 00:57:20;;;;;;;18.90;17.98;;;24.50;63.60;;;;;;5110850;28;20836;-70
2022/08/21 00:59:49;;;;;;;20.27;19.27;;;24.50;63.60;;;;;;5110944;28;20380;-70
2022/08/21 01:02:16;;;;;;;18.83;17.83;;;24.50;63.50;;;;;;5112366;28;20395;-68
2022/08/21 01:04:43;;;;;;;18.35;17.45;;;24.50;63.50;;;;;;5111155;28;20398;-69
2022/08/21 01:07:09;;;;;;;20.55;19.65;;;24.50;63.50;;;;;;5110763;28;20392;-69
2022/08/21 01:09:36;;;;;;;21.45;20.45;;;24.50;63.50;;;;;;5110316;28;20392;-69
2022/08/21 01:12:02;;;;;;;21.48;20.48;;;24.50;63.60;;;;;;5112290;28;20381;-69
2022/08/21 01:14:28;;;;;;;21.38;20.33;;;24.50;63.60;;;;;;5111031;28;20393;-79
2022/08/21 01:16:55;;;;;;;19.40;18.50;;;24.50;63.60;;;;;;5110938;28;20407;-70
2022/08/21 01:19:22;;;;;;;18.60;17.70;;;24.50;63.60;;;;;;5110875;28;20384;-72
2022/08/21 01:21:48;;;;;;;19.35;18.45;;;24.40;63.50;;;;;;5112070;28;20467;-78
2022/08/21 01:24:15;;;;;;;19.10;18.20;;;24.40;63.50;;;;;;5145310;27;20443;-78
2022/08/21 01:26:42;;;;;;;19.88;18.98;;;24.40;63.60;;;;;;5110825;28;20395;-69
2022/08/21 01:29:31;;;;;;;19.02;18.13;;;24.40;63.60;;;;;;5110572;28;20408;-79
2022/08/21 01:31:58;;;;;;;18.70;17.80;;;24.40;63.60;;;;;;5114818;28;20395;-69
2022/08/21 01:34:24;;;;;;;20.42;19.42;;;24.40;63.60;;;;;;5115869;28;20750;-69
2022/08/21 01:36:49;;;;;;;18.00;17.15;;;24.40;63.60;;;;;;5115930;28;20380;-73
2022/08/21 01:39:15;;;;;;;19.08;18.17;;;24.40;63.60;;;;;;5115582;28;20388;-69
2022/08/21 01:41:41;;;;;;;18.35;17.45;;;24.40;63.50;;;;;;5115331;28;20372;-69
2022/08/21 01:44:07;;;;;;;18.33;17.33;;;24.40;63.60;;;;;;5114293;28;20892;-78
2022/08/21 01:46:33;;;;;;;18.52;17.63;;;24.40;63.60;;;;;;5115715;27;20380;-69
2022/08/21 01:48:59;;;;;;;18.13;17.23;;;24.40;63.50;;;;;;5115718;28;20412;-69
2022/08/21 01:51:24;;;;;;;18.48;17.58;;;24.40;63.50;;;;;;5115609;28;20391;-69
2022/08/21 01:53:50;;;;;;;18.43;17.53;;;24.40;63.50;;;;;;5115508;28;20475;-70
2022/08/21 01:56:17;;;;;;;17.27;16.37;;;24.40;63.60;;;;;;5148341;27;20399;-69
2022/08/21 01:58:45;;;;;;;17.85;17.05;;;24.40;63.50;;;;;;5115371;28;20899;-69
2022/08/21 02:01:11;;;;;;;19.00;18.10;;;24.40;63.60;;;;;;5114097;28;20471;-74
2022/08/21 02:03:38;;;;;;;17.70;16.83;;;24.40;63.60;;;;;;5115418;28;20463;-69
2022/08/21 02:06:06;;;;;;;17.75;16.95;;;24.40;63.50;;;;;;5115357;28;20380;-76
2022/08/21 02:08:32;;;;;;;18.45;17.65;;;24.40;63.60;;;;;;5115282;28;20424;-69
2022/08/21 02:10:59;;;;;;;18.77;17.88;;;24.30;63.50;;;;;;5114959;28;20476;-73
2022/08/21 02:13:24;;;;;;;19.38;18.38;;;24.30;63.50;;;;;;5115203;28;20433;-69
2022/08/21 02:15:50;;;;;;;19.47;18.57;;;24.40;63.50;;;;;;5114021;28;20388;-70
2022/08/21 02:18:16;;;;;;;17.92;17.13;;;24.30;63.50;;;;;;5148278;27;20399;-76
2022/08/21 02:20:46;;;;;;;20.40;19.50;;;24.30;63.50;;;;;;5113818;28;20437;-71
2022/08/21 02:23:13;;;;;;;18.20;17.35;;;24.30;63.50;;;;;;5114916;28;20869;-69
2022/08/21 02:25:40;;;;;;;18.30;17.40;;;24.30;63.50;;;;;;5114730;28;20372;-69
2022/08/21 02:28:11;;;;;;;19.05;18.15;;;24.30;63.50;;;;;;5113580;28;20404;-69
2022/08/21 02:30:41;;;;;;;18.65;17.77;;;24.30;63.50;;;;;;5115010;28;20913;-70
2022/08/21 02:33:09;;;;;;;18.48;17.58;;;24.30;63.50;;;;;;5113550;28;20392;-70
2022/08/21 02:35:36;;;;;;;18.75;17.75;;;24.30;63.50;;;;;;5114929;28;20418;-78
2022/08/21 02:38:05;;;;;;;19.02;18.13;;;24.30;63.50;;;;;;5114545;28;20487;-76
2022/08/21 02:40:34;;;;;;;16.63;15.80;;;24.30;63.50;;;;;;5114241;27;20380;-78
2022/08/21 02:43:02;;;;;;;17.40;16.60;;;24.30;63.50;;;;;;5113259;28;20400;-69
2022/08/21 02:45:28;;;;;;;17.60;16.80;;;24.30;63.50;;;;;;5113307;28;20391;-69
2022/08/21 02:47:59;;;;;;;18.23;17.33;;;24.30;63.50;;;;;;5114507;28;20415;-69
2022/08/21 02:51:08;;;;;;;18.33;17.42;;;24.30;63.50;;;;;;5114435;28;20388;-69
2022/08/21 02:53:35;;;;;;;18.48;17.58;;;24.30;63.50;;;;;;5113124;28;20494;-69
2022/08/21 02:56:04;;;;;;;18.40;17.50;;;24.30;63.50;;;;;;5113189;28;20384;-69
2022/08/21 02:58:33;;;;;;;18.10;17.25;;;24.30;63.50;;;;;;5114058;27;20446;-69
2022/08/21 03:01:00;;;;;;;18.17;17.27;;;24.30;63.50;;;;;;5112979;28;20395;-69
2022/08/21 03:03:27;;;;;;;18.38;17.48;;;24.30;63.50;;;;;;5112818;28;20762;-69
2022/08/21 03:05:53;;;;;;;18.63;17.70;;;24.30;63.50;;;;;;5114060;28;20380;-68
2022/08/21 03:08:20;;;;;;;17.90;17.00;;;24.30;63.50;;;;;;5113917;28;20515;-78
2022/08/21 03:10:49;;;;;;;18.02;17.08;;;24.20;63.40;;;;;;5112784;28;20384;-69
2022/08/21 03:13:15;;;;;;;17.02;16.23;;;24.20;63.40;;;;;;5114015;28;20393;-69
2022/08/21 03:15:42;;;;;;;15.98;15.23;;;24.20;63.40;;;;;;5112704;28;20441;-79
2022/08/21 03:18:09;;;;;;;16.40;15.60;;;24.20;63.40;;;;;;5114056;28;20389;-76
2022/08/21 03:20:36;;;;;;;17.48;16.65;;;24.20;63.40;;;;;;5113874;27;20433;-69
2022/08/21 03:23:03;;;;;;;17.30;16.42;;;24.20;63.40;;;;;;5113900;28;20400;-69
2022/08/21 03:25:31;;;;;;;16.60;15.80;;;24.20;63.40;;;;;;5112486;28;20873;-69
2022/08/21 03:27:58;;;;;;;16.58;15.77;;;24.20;63.40;;;;;;5113668;28;20409;-69
2022/08/21 03:30:24;;;;;;;16.98;16.08;;;24.20;63.40;;;;;;5113625;28;20929;-69
2022/08/21 03:32:52;;;;;;;17.95;17.05;;;24.20;63.40;;;;;;5112384;28;20757;-69
2022/08/21 03:35:19;;;;;;;16.92;16.02;;;24.20;63.50;;;;;;5113665;28;20384;-70
2022/08/21 03:37:46;;;;;;;16.13;15.32;;;24.20;63.40;;;;;;5113656;28;20396;-69
2022/08/21 03:40:14;;;;;;;17.58;16.67;;;24.20;63.50;;;;;;5113560;28;20384;-69
2022/08/21 03:42:40;;;;;;;16.08;15.27;;;24.20;63.50;;;;;;5112052;28;20428;-69
2022/08/21 03:45:07;;;;;;;15.63;14.82;;;24.20;63.50;;;;;;5112342;28;20465;-69
2022/08/21 03:47:32;;;;;;;17.08;16.27;;;24.20;63.40;;;;;;5111962;28;20400;-69
2022/08/21 03:49:59;;;;;;;16.88;16.08;;;24.20;63.40;;;;;;5113372;28;20528;-77
2022/08/21 03:52:25;;;;;;;18.83;17.83;;;24.20;63.40;;;;;;5112491;28;20388;-69
2022/08/21 03:54:50;;;;;;;17.17;16.30;;;24.20;63.40;;;;;;5112005;28;20384;-69
2022/08/21 03:57:16;;;;;;;17.75;16.95;;;24.20;63.40;;;;;;5112755;28;20457;-79
2022/08/21 03:59:43;;;;;;;17.95;17.08;;;24.20;63.50;;;;;;5112237;28;20492;-69
2022/08/21 04:02:09;;;;;;;16.05;15.25;;;24.20;63.40;;;;;;5146097;27;20780;-69
2022/08/21 04:04:36;;;;;;;16.50;15.70;;;24.20;63.40;;;;;;5112987;28;20757;-69
2022/08/21 04:07:02;;;;;;;18.75;17.85;;;24.20;63.40;;;;;;5113093;28;20409;-69
2022/08/21 04:09:28;;;;;;;18.50;17.60;;;24.10;63.40;;;;;;5112793;28;20946;-69
2022/08/21 04:11:54;;;;;;;18.27;17.38;;;24.20;63.40;;;;;;5112882;28;20384;-70
2022/08/21 04:14:20;;;;;;;18.73;17.83;;;24.20;63.40;;;;;;5112841;28;20808;-79
2022/08/21 04:16:46;;;;;;;18.40;17.50;;;24.10;63.40;;;;;;5111543;28;20403;-79
2022/08/21 04:19:15;;;;;;;17.95;17.10;;;24.20;63.40;;;;;;5112579;28;20746;-69
2022/08/21 04:21:42;;;;;;;17.40;16.60;;;24.20;63.40;;;;;;5111577;28;20395;-69
2022/08/21 04:24:09;;;;;;;17.83;17.02;;;24.10;63.40;;;;;;5112612;28;20427;-69
2022/08/21 04:26:36;;;;;;;16.63;15.82;;;24.20;63.40;;;;;;5111402;28;20380;-68
2022/08/21 04:29:03;;;;;;;16.02;15.23;;;24.10;63.40;;;;;;5111324;28;20408;-69
2022/08/21 04:31:28;;;;;;;15.20;14.40;;;24.10;63.40;;;;;;5112576;28;20433;-69
2022/08/21 04:33:56;;;;;;;16.52;15.73;;;24.10;63.40;;;;;;5145706;27;20487;-69
2022/08/21 04:36:22;;;;;;;16.38;15.57;;;24.10;63.40;;;;;;5112510;28;20395;-69
2022/08/21 04:38:48;;;;;;;16.33;15.52;;;24.10;63.40;;;;;;5112544;28;20874;-79
2022/08/21 04:41:14;;;;;;;17.87;16.97;;;24.10;63.40;;;;;;5111232;28;20438;-70
2022/08/21 04:43:39;;;;;;;17.05;16.25;;;24.10;63.50;;;;;;5112571;28;20881;-69
2022/08/21 04:46:06;;;;;;;17.23;16.43;;;24.10;63.40;;;;;;5112460;28;20384;-76
2022/08/21 04:48:32;;;;;;;17.13;16.33;;;24.10;63.40;;;;;;5112222;28;20404;-69
2022/08/21 04:51:19;;;;;;;16.38;15.57;;;24.10;63.40;;;;;;5112472;28;20387;-69
2022/08/21 04:53:51;;;;;;;18.25;17.38;;;24.10;63.40;;;;;;5111150;28;20473;-79
2022/08/21 04:56:34;;;;;;;17.13;16.33;;;24.10;63.40;;;;;;5112342;28;20826;-69
2022/08/21 04:59:02;;;;;;;17.77;16.98;;;24.10;63.40;;;;;;5112143;28;20407;-69
2022/08/21 05:01:32;;;;;;;17.92;17.02;;;24.10;63.40;;;;;;5112191;28;20468;-69
2022/08/21 05:04:00;;;;;;;18.23;17.33;;;24.10;63.40;;;;;;5113309;28;20395;-79
2022/08/21 05:06:28;;;;;;;18.27;17.38;;;24.10;63.40;;;;;;5116465;28;20384;-79
2022/08/21 05:08:55;;;;;;;17.75;16.85;;;24.10;63.40;;;;;;5116465;28;20419;-69
2022/08/21 05:11:21;;;;;;;16.98;16.17;;;24.10;63.40;;;;;;5116418;28;20436;-68
2022/08/21 05:13:48;;;;;;;16.27;15.48;;;24.10;63.40;;;;;;5116328;28;20389;-70
2022/08/21 05:16:15;;;;;;;17.92;17.13;;;24.00;63.40;;;;;;5116309;28;20380;-69
2022/08/21 05:18:42;;;;;;;18.05;17.15;;;24.10;63.40;;;;;;5115060;28;20388;-69
2022/08/21 05:21:09;;;;;;;16.15;15.35;;;24.10;63.40;;;;;;5114976;28;20395;-69
2022/08/21 05:23:35;;;;;;;18.27;17.38;;;24.00;63.30;;;;;;5116131;28;20388;-68
2022/08/21 05:26:02;;;;;;;17.42;16.52;;;24.10;63.40;;;;;;5116269;28;20377;-69
2022/08/21 05:28:28;;;;;;;16.40;15.60;;;24.00;63.40;;;;;;5115999;28;20411;-79
2022/08/21 05:30:53;;;;;;;17.08;16.27;;;24.10;63.40;;;;;;5116068;28;20869;-69
2022/08/21 05:33:19;;;;;;;17.13;16.30;;;24.10;63.40;;;;;;5115944;28;20384;-69
2022/08/21 05:35:44;;;;;;;17.70;16.80;;;24.00;63.40;;;;;;5116171;28;20384;-79
2022/08/21 05:38:10;;;;;;;17.10;16.30;;;24.00;63.30;;;;;;5114645;28;20483;-68
2022/08/21 05:40:36;;;;;;;19.13;18.23;;;24.00;63.40;;;;;;5115942;28;20499;-69
2022/08/21 05:43:02;;;;;;;15.27;14.48;;;24.00;63.30;;;;;;5149020;27;20490;-72
2022/08/21 05:45:31;;;;;;;18.95;18.05;;;24.00;63.90;;;;;;5115842;28;20383;-69
2022/08/21 05:47:57;;;;;;;18.83;17.92;;;24.00;63.30;;;;;;5115764;28;20426;-69
2022/08/21 05:50:22;;;;;;;18.17;17.38;;;24.00;63.30;;;;;;5115574;28;20945;-69
2022/08/21 05:52:48;;;;;;;17.53;16.63;;;24.00;63.30;;;;;;5148627;27;20466;-69
2022/08/21 05:55:14;;;;;;;16.00;15.20;;;24.00;63.30;;;;;;5115538;28;20400;-69
2022/08/21 05:57:41;;;;;;;18.33;17.42;;;24.00;63.30;;;;;;5115376;28;20447;-74
2022/08/21 06:00:12;;;;;;;17.77;16.98;;;24.00;63.40;;;;;;5115609;28;20388;-68
2022/08/21 06:02:39;;;;;;;17.38;16.48;;;24.00;63.30;;;;;;5114256;28;20434;-72
2022/08/21 06:05:05;;;;;;;16.48;15.68;;;24.00;63.20;;;;;;5114143;28;20388;-69
2022/08/21 06:07:30;;;;;;;17.13;16.33;;;24.00;63.20;;;;;;5113902;28;20388;-69
2022/08/21 06:09:56;;;;;;;15.87;15.07;;;24.00;63.10;;;;;;5115365;28;20397;-74
2022/08/21 06:12:22;;;;;;;17.30;16.42;;;24.00;63.10;;;;;;5115208;28;20437;-69
2022/08/21 06:14:48;;;;;;;17.97;17.00;;;24.00;63.40;;;;;;5115336;28;20534;-69
2022/08/21 06:17:14;;;;;;;20.58;19.48;;;24.00;63.60;;;;;;5114473;28;20474;-69
2022/08/21 06:19:40;;;;;;;25.27;23.55;;;24.00;63.90;;;;;;5115267;28;20395;-69
2022/08/21 06:22:06;;;;;;;22.83;21.47;;;24.00;65.50;;;;;;5115467;28;20377;-70
2022/08/21 06:24:32;;;;;;;21.27;20.17;;;24.10;64.50;;;;;;5115197;28;20472;-69
2022/08/21 06:26:57;;;;;;;20.60;19.30;;;24.10;65.40;;;;;;5115467;28;20461;-70
2022/08/21 06:29:24;;;;;;;22.27;21.00;;;24.10;65.00;;;;;;5115287;28;20416;-82
2022/08/21 06:31:51;;;;;;;26.02;24.70;;;24.10;64.20;;;;;;5115252;28;20866;-81
2022/08/21 06:34:17;;;;;;;21.55;20.55;;;24.10;64.00;;;;;;5115222;28;20392;-68
2022/08/21 06:36:43;;;;;;;24.95;23.38;;;24.00;64.00;;;;;;5115262;28;20392;-81
2022/08/21 06:39:09;;;;;;;23.45;22.05;;;24.00;63.70;;;;;;5115242;28;20392;-82
2022/08/21 06:41:35;;;;;;;23.77;22.40;;;24.00;63.70;;;;;;5115192;28;20770;-81
2022/08/21 06:44:01;;;;;;;22.10;20.92;;;24.00;63.70;;;;;;5114967;28;20388;-70
2022/08/21 06:46:29;;;;;;;22.17;21.07;;;24.00;63.80;;;;;;5114917;28;20399;-69
2022/08/21 06:48:55;;;;;;;20.17;19.08;;;24.00;64.00;;;;;;5115155;28;20431;-82
2022/08/21 06:51:22;;;;;;;22.93;21.83;;;24.00;63.70;;;;;;5115457;28;20467;-83
2022/08/21 06:53:49;;;;;;;21.55;20.17;;;24.00;64.60;;;;;;5115337;27;20397;-81
2022/08/21 06:56:15;;;;;;;21.63;20.23;;;24.10;64.70;;;;;;5115098;28;20380;-82
2022/08/21 06:58:41;;;;;;;27.38;25.77;;;24.10;65.40;;;;;;5114727;28;20415;-72
2022/08/21 07:01:06;;;;;;;23.60;22.10;;;24.10;64.10;;;;;;5114412;28;20363;-72
2022/08/21 07:03:41;;;;;;;24.70;23.27;;;24.10;64.20;;;;;;5147931;27;20399;-81
2022/08/21 07:06:08;;;;;;;22.95;21.25;;;24.10;64.60;;;;;;5114775;28;20730;-83
2022/08/21 07:08:35;;;;;;;20.60;19.08;;;24.10;65.20;;;;;;5114448;27;20486;-83
2022/08/21 07:11:06;;;;;;;20.38;18.88;;;24.10;65.40;;;;;;5114575;28;20384;-70
2022/08/21 07:13:31;;;;;;;22.48;21.00;;;24.10;65.50;;;;;;5114044;28;20892;-70
2022/08/21 07:15:57;;;;;;;24.37;22.77;;;24.10;65.70;;;;;;5114327;28;20389;-81
2022/08/21 07:18:22;;;;;;;22.90;21.10;;;24.10;65.80;;;;;;5114428;28;20399;-82
2022/08/21 07:20:48;;;;;;;20.60;19.27;;;24.10;65.10;;;;;;5114287;28;20451;-80
2022/08/21 07:23:28;;;;;;;21.80;20.15;;;24.10;65.60;;;;;;5113960;27;20464;-69
2022/08/21 07:25:54;;;;;;;22.83;21.52;;;24.10;64.90;;;;;;5114146;28;20380;-81
2022/08/21 07:28:20;;;;;;;24.83;23.33;;;24.10;65.30;;;;;;5113186;28;20424;-69
2022/08/21 07:30:51;;;;;;;26.05;24.45;;;24.10;66.00;;;;;;5114277;28;20463;-82
2022/08/21 07:33:17;;;;;;;22.70;21.40;;;24.20;66.10;;;;;;5113006;28;20483;-74
2022/08/21 07:35:42;;;;;;;24.65;23.08;;;24.10;64.90;;;;;;5114311;28;20460;-74
2022/08/21 07:38:08;;;;;;;28.15;26.60;;;24.20;66.30;;;;;;5112816;28;20393;-70
2022/08/21 07:40:34;;;;;;;26.08;24.52;;;24.20;65.80;;;;;;5113739;28;20411;-83
2022/08/21 07:43:00;;;;;;;27.27;25.65;;;24.20;66.10;;;;;;5147146;27;20745;-76
2022/08/21 07:45:26;;;;;;;29.73;28.17;;;24.20;66.20;;;;;;5112616;28;20392;-81
2022/08/21 07:47:51;;;;;;;29.70;28.10;;;24.20;65.80;;;;;;5146669;27;20739;-82
2022/08/21 07:50:18;;;;;;;30.73;29.02;;;24.20;66.00;;;;;;5113377;27;20479;-77
2022/08/21 07:52:44;;;;;;;30.05;28.08;;;24.20;65.70;;;;;;5112099;28;20384;-69
2022/08/21 07:55:13;;;;;;;24.40;22.85;;;24.20;65.60;;;;;;5112122;28;20400;-76
2022/08/21 07:57:39;;;;;;;25.70;24.35;;;24.20;64.30;;;;;;5097714;28;20413;-69
2022/08/21 08:00:09;;;;;;;24.07;22.73;;;24.20;64.60;;;;;;5096256;28;20377;-70
2022/08/21 08:02:35;;;;;;;23.63;22.33;;;24.10;64.70;;;;;;5089959;28;20380;-78
2022/08/21 08:05:05;;;;;;;23.47;22.17;;;24.10;64.70;;;;;;5093630;28;20390;-69
2022/08/21 08:07:31;;;;;;;24.55;23.17;;;24.10;64.70;;;;;;5089872;28;20392;-71
2022/08/21 08:09:58;;;;;;;24.83;23.45;;;24.10;64.70;;;;;;5088996;28;20419;-71
2022/08/21 08:12:29;;;;;;;24.58;23.17;;;24.10;64.90;;;;;;5088169;28;20394;-78
2022/08/21 08:14:59;;;;;;;27.80;26.10;;;24.10;64.80;;;;;;5093401;28;20385;-71
2022/08/21 08:17:25;;;;;;;25.33;23.85;;;24.20;66.40;;;;;;5091588;28;20380;-73
2022/08/21 08:19:51;;;;;;;26.27;24.75;;;24.20;64.50;;;;;;5094968;28;20473;-69
2022/08/21 08:22:19;;;;;;;26.75;25.15;;;24.20;64.40;;;;;;5093135;28;20465;-69
2022/08/21 08:24:46;;;;;;;25.75;24.02;;;24.20;64.20;;;;;;5097959;28;20399;-78
2022/08/21 08:27:12;;;;;;;25.95;24.40;;;24.20;64.20;;;;;;5093443;28;20405;-74
2022/08/21 08:29:38;;;;;;;26.60;25.20;;;24.20;64.00;;;;;;5093432;28;20917;-70
2022/08/21 08:32:04;;;;;;;26.95;25.38;;;24.30;63.80;;;;;;5123822;27;20493;-69
2022/08/21 08:34:30;;;;;;;25.48;24.08;;;24.30;63.70;;;;;;5092724;28;20445;-69
2022/08/21 08:36:57;;;;;;;26.65;25.02;;;24.30;63.80;;;;;;5125280;27;20388;-69
2022/08/21 08:39:23;;;;;;;29.05;27.25;;;24.40;63.70;;;;;;5085095;28;20412;-70
2022/08/21 08:41:52;;;;;;;28.00;26.10;;;24.40;63.50;;;;;;5087122;28;21001;-72
2022/08/21 08:44:18;;;;;;;27.90;26.35;;;24.40;63.40;;;;;;5089860;28;21020;-69
2022/08/21 08:46:47;;;;;;;26.23;24.42;;;24.50;63.50;;;;;;5089621;28;20858;-73
2022/08/21 08:49:36;;;;;;;25.83;24.03;;;24.40;63.50;;;;;;5085274;28;20480;-69
2022/08/21 08:52:07;;;;;;;27.83;26.27;;;24.50;63.60;;;;;;5089666;28;20370;-70
2022/08/21 08:54:56;;;;;;;29.23;27.52;;;24.40;63.40;;;;;;5088573;28;20419;-72
2022/08/21 08:57:24;;;;;;;25.85;24.27;;;24.50;63.60;;;;;;5083705;28;20828;-70
2022/08/21 08:59:57;;;;;;;26.33;24.73;;;24.50;64.00;;;;;;5090903;28;20478;-72
2022/08/21 09:02:24;;;;;;;28.33;26.42;;;24.60;64.40;;;;;;5091924;28;20382;-73
2022/08/21 09:04:51;;;;;;;27.87;26.37;;;24.60;63.70;;;;;;5091899;28;20585;-69
2022/08/21 09:07:39;;;;;;;27.30;25.77;;;24.60;63.50;;;;;;5095700;28;20393;-70
2022/08/21 09:10:17;;;;;;;28.35;26.75;;;24.70;63.40;;;;;;5092513;28;20414;-74
2022/08/21 09:12:49;;;;;;;26.25;24.85;;;24.70;63.20;;;;;;5091767;28;20431;-69
2022/08/21 09:15:22;;;;;;;29.20;27.05;;;24.70;63.30;;;;;;5089318;28;20911;-68
2022/08/21 09:17:53;;;;;;;27.67;26.07;;;24.70;64.10;;;;;;5090535;28;20925;-69
2022/08/21 09:20:32;;;;;;;28.02;26.33;;;24.60;64.70;;;;;;5094112;28;20786;-70
2022/08/21 09:23:22;;;;;;;24.92;23.23;;;24.60;64.80;;;;;;5091263;28;20425;-72
2022/08/21 09:26:15;;;;;;;28.98;27.27;;;24.60;65.20;;;;;;5092863;28;20401;-69
2022/08/21 09:28:42;;;;;;;25.77;23.95;;;24.60;65.20;;;;;;5092858;28;20453;-73
2022/08/21 09:31:22;;;;;;;27.43;25.87;;;24.50;65.00;;;;;;5092433;28;20466;-68
2022/08/21 09:33:47;;;;;;;28.60;26.80;;;24.60;65.10;;;;;;5086915;28;20380;-68
2022/08/21 09:36:25;;;;;;;30.07;28.37;;;24.60;65.10;;;;;;5090461;28;20398;-68
2022/08/21 09:38:56;;;;;;;27.95;26.40;;;24.50;65.10;;;;;;5104787;28;20461;-69
2022/08/21 09:41:31;;;;;;;26.87;25.57;;;24.50;65.10;;;;;;5090996;28;20511;-78
2022/08/21 09:43:57;;;;;;;28.25;26.75;;;24.50;65.30;;;;;;5092357;28;20848;-76
2022/08/21 09:46:26;;;;;;;27.85;26.05;;;24.50;65.00;;;;;;5085135;28;20390;-69
2022/08/21 09:49:03;;;;;;;28.23;26.67;;;24.50;65.10;;;;;;5086301;28;20426;-72
2022/08/21 09:51:36;;;;;;;27.50;26.00;;;24.50;65.20;;;;;;5091393;28;20467;-69
2022/08/21 09:54:05;;;;;;;29.48;27.83;;;24.60;65.50;;;;;;5092664;28;20382;-69
2022/08/21 09:59:32;;;;;;;26.95;25.45;;;24.60;65.20;;;;;;5091893;28;20393;-74
2022/08/21 10:02:01;;;;;;;28.55;26.98;;;24.50;65.10;;;;;;5094669;28;20494;-70
2022/08/21 10:04:36;;;;;;;25.90;24.48;;;24.50;64.80;;;;;;5094974;28;20400;-74
2022/08/21 10:07:11;;;;;;;26.02;24.50;;;24.50;64.50;;;;;;5092978;28;20455;-69
2022/08/21 10:09:38;;;;;;;28.63;27.13;;;24.50;64.70;;;;;;5095151;28;20421;-69
2022/08/21 10:12:03;;;;;;;25.08;23.67;;;24.50;64.40;;;;;;5096735;28;21438;-76
2022/08/21 10:14:58;;;;;;;26.10;24.80;;;24.60;64.60;;;;;;5090342;28;20611;-75
2022/08/21 10:17:51;;;;;;;30.58;28.67;;;24.50;64.20;;;;;;5092351;28;20426;-78
2022/08/21 10:20:25;;;;;;;27.83;26.02;;;24.60;64.30;;;;;;5093250;28;20401;-69
2022/08/21 10:23:13;;;;;;;31.17;28.80;;;24.60;64.80;;;;;;5094089;28;20414;-72
2022/08/21 10:26:05;;;;;;;30.65;28.55;;;24.60;65.30;;;;;;5097192;28;20394;-72
2022/08/21 10:28:47;;;;;;;33.33;31.15;;;24.60;65.60;;;;;;5095665;28;20427;-76
2022/08/21 10:31:20;;;;;;;52.75;49.25;;;24.70;65.80;;;;;;5092097;28;20386;-70
2022/08/21 10:34:11;;;;;;;47.05;44.17;;;24.70;68.10;;;;;;5096434;28;20449;-75
2022/08/21 10:36:43;;;;;;;34.05;31.75;;;24.70;66.70;;;;;;5097374;28;20381;-80
2022/08/21 10:39:23;;;;;;;33.72;31.60;;;24.80;65.60;;;;;;5094679;28;20389;-79
2022/08/21 10:42:17;;;;;;;34.87;32.40;;;24.70;64.20;;;;;;5095912;28;20454;-81
2022/08/21 10:44:52;;;;;;;33.47;31.40;;;24.70;65.10;;;;;;5096998;28;20401;-72
2022/08/21 10:47:47;;;;;;;32.00;30.02;;;24.80;65.00;;;;;;5089968;28;20396;-69
2022/08/21 10:50:25;;;;;;;32.30;30.08;;;24.80;64.40;;;;;;5093262;28;20489;-78
2022/08/21 10:53:16;;;;;;;31.52;29.60;;;24.80;64.60;;;;;;5092878;28;20958;-69
2022/08/21 10:55:52;;;;;;;32.10;30.33;;;24.70;64.10;;;;;;5093752;28;20861;-69
2022/08/21 10:58:21;;;;;;;30.98;29.27;;;24.70;64.20;;;;;;5125679;27;20904;-69
2022/08/21 11:00:51;;;;;;;30.55;28.65;;;24.70;64.00;;;;;;5094212;28;20493;-73
2022/08/21 11:03:25;;;;;;;28.45;26.88;;;24.70;63.90;;;;;;5090741;28;20388;-69
2022/08/21 11:06:01;;;;;;;27.25;25.75;;;24.80;63.80;;;;;;5099213;28;20396;-79
2022/08/21 11:08:35;;;;;;;26.55;24.95;;;24.80;63.50;;;;;;5092628;28;20804;-69
2022/08/21 11:11:04;;;;;;;24.85;23.35;;;24.70;63.20;;;;;;5095352;28;20386;-70
2022/08/21 11:13:41;;;;;;;25.25;23.75;;;24.70;63.10;;;;;;5089472;28;20801;-69
2022/08/21 11:16:32;;;;;;;25.42;23.90;;;24.70;63.00;;;;;;5088236;28;20508;-74
2022/08/21 11:19:04;;;;;;;21.83;20.58;;;24.70;62.80;;;;;;5089111;28;20469;-71
2022/08/21 11:21:42;;;;;;;21.50;20.02;;;24.70;62.20;;;;;;5092650;28;20370;-69
2022/08/21 11:24:21;;;;;;;23.52;22.25;;;24.70;62.70;;;;;;5091421;28;20761;-78
2022/08/21 11:27:03;;;;;;;21.23;20.05;;;24.70;62.70;;;;;;5098165;28;20743;-70
2022/08/21 11:29:34;;;;;;;20.07;18.87;;;24.70;62.60;;;;;;5089977;28;20444;-69
2022/08/21 11:32:09;;;;;;;20.00;18.50;;;24.70;62.40;;;;;;5093687;28;20408;-71
2022/08/21 11:34:49;;;;;;;18.55;17.35;;;24.70;62.40;;;;;;5096939;28;20427;-74
2022/08/21 11:37:42;;;;;;;20.83;19.63;;;24.70;62.40;;;;;;5092711;28;20914;-68
2022/08/21 11:40:49;;;;;;;21.35;20.05;;;24.70;62.50;;;;;;5090806;28;20733;-69
2022/08/21 11:43:43;;;;;;;21.65;20.45;;;24.70;62.60;;;;;;5099751;28;20741;-69
2022/08/21 11:46:32;;;;;;;21.63;20.37;;;24.70;62.70;;;;;;5089625;28;20419;-80
2022/08/21 11:49:20;;;;;;;23.50;22.23;;;24.60;62.80;;;;;;5091298;28;20417;-70
2022/08/21 11:52:20;;;;;;;22.40;21.20;;;24.70;62.90;;;;;;5092401;28;20401;-79
2022/08/21 11:55:02;;;;;;;22.33;21.13;;;24.60;62.70;;;;;;5092968;28;20904;-70
2022/08/21 11:57:30;;;;;;;23.85;22.48;;;24.70;62.90;;;;;;5123874;27;20398;-70
2022/08/21 12:00:10;;;;;;;23.05;21.85;;;24.70;62.90;;;;;;5093679;28;20427;-71
2022/08/21 12:02:43;;;;;;;22.48;21.17;;;24.70;62.90;;;;;;5095378;28;20401;-72
2022/08/21 12:05:11;;;;;;;22.50;21.30;;;24.70;62.80;;;;;;5093425;28;20396;-79
2022/08/21 12:07:43;;;;;;;21.43;20.33;;;24.70;62.90;;;;;;5107678;27;20394;-70
2022/08/21 12:10:16;;;;;;;20.60;19.50;;;24.70;62.50;;;;;;5081945;28;20745;-70
2022/08/21 12:12:44;;;;;;;23.08;21.88;;;24.70;62.60;;;;;;5099699;28;20429;-70
2022/08/21 12:15:29;;;;;;;20.55;19.45;;;24.70;62.70;;;;;;5090678;28;20407;-73
2022/08/21 12:18:06;;;;;;;22.35;21.23;;;24.70;62.40;;;;;;5089088;28;21236;-73
2022/08/21 12:20:34;;;;;;;21.85;20.65;;;24.70;62.70;;;;;;5095822;28;20393;-70
2022/08/21 12:23:23;;;;;;;18.92;17.83;;;24.70;62.70;;;;;;5096658;28;20401;-76
2022/08/21 12:26:17;;;;;;;21.20;20.00;;;24.70;62.70;;;;;;5090193;28;20395;-81
2022/08/21 12:28:44;;;;;;;21.65;20.27;;;24.70;62.70;;;;;;5096703;28;20414;-70
2022/08/21 12:31:25;;;;;;;20.73;19.52;;;24.70;62.60;;;;;;5097656;28;20882;-69
2022/08/21 12:34:02;;;;;;;19.90;18.90;;;24.70;62.60;;;;;;5090635;28;20372;-70
2022/08/21 12:36:53;;;;;;;23.67;22.38;;;24.70;62.60;;;;;;5091433;28;20421;-70
2022/08/21 12:39:25;;;;;;;22.25;21.05;;;24.70;62.70;;;;;;5090113;28;20385;-70
2022/08/21 12:41:57;;;;;;;20.90;19.80;;;24.70;62.70;;;;;;5093566;28;21340;-69
2022/08/21 12:44:39;;;;;;;22.83;21.52;;;24.70;62.70;;;;;;5096684;28;20403;-69
2022/08/21 12:47:21;;;;;;;20.23;19.23;;;24.70;63.00;;;;;;5093450;28;20865;-73